createdAt,value
2023-07-22T00:00:30.570Z,68.13
2023-07-22T00:01:30.721Z,67.96
2023-07-22T00:02:30.804Z,68.12
2023-07-22T00:03:30.895Z,68.13
2023-07-22T00:04:30.999Z,68.09
2023-07-22T00:05:31.134Z,67.95
2023-07-22T00:06:31.278Z,68.06
2023-07-22T00:07:31.408Z,68.26
2023-07-22T00:08:31.549Z,67.74
2023-07-22T00:09:31.681Z,67.64
2023-07-22T00:10:31.828Z,67.45
2023-07-22T00:11:31.917Z,67.60
2023-07-22T00:12:32.176Z,67.86
2023-07-22T00:13:32.885Z,67.89
2023-07-22T00:14:32.401Z,68.07
2023-07-22T00:15:32.487Z,67.95
2023-07-22T00:16:32.692Z,67.61
2023-07-22T00:17:32.729Z,67.50
2023-07-22T00:18:32.845Z,67.72
2023-07-22T00:19:32.929Z,67.93
2023-07-22T00:20:33.030Z,67.83
2023-07-22T00:21:33.140Z,67.62
2023-07-22T00:22:33.265Z,67.81
2023-07-22T00:23:33.433Z,67.79
2023-07-22T00:24:33.583Z,67.65
2023-07-22T00:25:33.667Z,67.80
2023-07-22T00:26:33.823Z,67.63
2023-07-22T00:27:33.949Z,68.22
2023-07-22T00:28:34.034Z,68.47
2023-07-22T00:29:34.172Z,68.63
2023-07-22T00:30:34.286Z,68.56
2023-07-22T00:31:34.407Z,68.81
2023-07-22T00:32:34.596Z,68.87
2023-07-22T00:33:34.733Z,68.84
2023-07-22T00:34:34.764Z,68.85
2023-07-22T00:35:34.903Z,68.70
2023-07-22T00:36:34.976Z,68.81
2023-07-22T00:37:35.136Z,69.02
2023-07-22T00:38:35.267Z,69.14
2023-07-22T00:39:35.499Z,69.14
2023-07-22T00:40:35.598Z,69.16
2023-07-22T00:41:35.723Z,69.24
2023-07-22T00:42:35.791Z,69.24
2023-07-22T00:43:35.917Z,69.12
2023-07-22T00:44:36.031Z,69.15
2023-07-22T00:45:36.137Z,68.85
2023-07-22T00:46:36.345Z,68.29
2023-07-22T00:47:36.410Z,67.94
2023-07-22T00:48:36.482Z,67.94
2023-07-22T00:49:36.559Z,68.08
2023-07-22T00:50:36.744Z,68.06
2023-07-22T00:51:36.898Z,68.27
2023-07-22T00:52:37.038Z,68.38
2023-07-22T00:53:37.182Z,68.55
2023-07-22T00:54:37.328Z,68.56
2023-07-22T00:55:37.467Z,68.80
2023-07-22T00:56:37.632Z,68.61
2023-07-22T00:57:37.797Z,68.69
2023-07-22T00:58:37.972Z,68.89
2023-07-22T00:59:38.174Z,68.96
2023-07-22T01:00:38.370Z,69.05
2023-07-22T01:01:38.484Z,68.99
2023-07-22T01:02:38.706Z,68.80
2023-07-22T01:03:38.744Z,68.55
2023-07-22T01:04:38.934Z,68.48
2023-07-22T01:05:39.152Z,68.25
2023-07-22T01:06:39.279Z,68.06
2023-07-22T01:07:39.446Z,68.14
2023-07-22T01:08:39.592Z,68.09
2023-07-22T01:09:39.760Z,68.28
2023-07-22T01:10:39.902Z,68.45
2023-07-22T01:11:40.036Z,68.41
2023-07-22T01:12:40.213Z,68.32
2023-07-22T01:13:40.420Z,68.23
2023-07-22T01:14:40.592Z,68.13
2023-07-22T01:15:40.760Z,68.06
2023-07-22T01:16:40.962Z,67.88
2023-07-22T01:17:41.126Z,68.05
2023-07-22T01:18:41.242Z,68.32
2023-07-22T01:19:41.382Z,68.13
2023-07-22T01:20:41.526Z,68.19
2023-07-22T01:21:41.652Z,67.73
2023-07-22T01:22:41.762Z,67.67
2023-07-22T01:23:41.904Z,67.39
2023-07-22T01:24:42.034Z,67.46
2023-07-22T01:25:42.175Z,67.83
2023-07-22T01:26:42.347Z,68.02
2023-07-22T01:27:42.417Z,68.04
2023-07-22T01:28:42.503Z,67.82
2023-07-22T01:29:42.621Z,67.32
2023-07-22T01:30:42.796Z,66.85
2023-07-22T01:31:42.866Z,66.46
2023-07-22T01:32:43.030Z,66.32
2023-07-22T01:33:43.077Z,66.22
2023-07-22T01:34:43.273Z,66.37
2023-07-22T01:35:43.496Z,66.58
2023-07-22T01:36:43.622Z,67.07
2023-07-22T01:37:43.771Z,67.03
2023-07-22T01:38:43.872Z,67.08
2023-07-22T01:39:44.018Z,67.14
2023-07-22T01:40:44.160Z,67.29
2023-07-22T01:41:44.224Z,67.22
2023-07-22T01:42:44.336Z,67.10
2023-07-22T01:43:44.511Z,67.08
2023-07-22T01:44:44.580Z,67.03
2023-07-22T01:45:44.705Z,67.00
2023-07-22T01:46:44.830Z,66.91
2023-07-22T01:47:44.998Z,66.90
2023-07-22T01:48:45.117Z,67.04
2023-07-22T01:49:45.283Z,67.19
2023-07-22T01:50:45.429Z,67.03
2023-07-22T01:51:45.631Z,67.11
2023-07-22T01:52:45.810Z,66.98
2023-07-22T01:53:45.974Z,66.79
2023-07-22T01:54:46.148Z,66.63
2023-07-22T01:55:46.291Z,66.71
2023-07-22T01:56:46.502Z,66.64
2023-07-22T01:57:46.613Z,66.75
2023-07-22T01:58:46.782Z,66.73
2023-07-22T01:59:46.939Z,66.65
2023-07-22T02:00:47.077Z,66.58
2023-07-22T02:01:47.231Z,66.48
2023-07-22T02:02:47.382Z,66.55
2023-07-22T02:03:47.495Z,66.65
2023-07-22T02:04:47.533Z,66.60
2023-07-22T02:05:47.649Z,66.67
2023-07-22T02:06:47.751Z,66.65
2023-07-22T02:07:47.882Z,66.68
2023-07-22T02:08:47.993Z,66.74
2023-07-22T02:09:48.114Z,66.64
2023-07-22T02:10:48.221Z,66.40
2023-07-22T02:11:48.361Z,66.40
2023-07-22T02:12:48.502Z,66.47
2023-07-22T02:13:48.605Z,66.45
2023-07-22T02:14:48.721Z,66.56
2023-07-22T02:15:48.874Z,66.46
2023-07-22T02:16:49.088Z,66.18
2023-07-22T02:17:49.194Z,66.35
2023-07-22T02:18:49.322Z,66.44
2023-07-22T02:19:49.540Z,66.51
2023-07-22T02:20:49.740Z,66.16
2023-07-22T02:21:49.929Z,65.98
2023-07-22T02:22:50.049Z,66.07
2023-07-22T02:23:50.228Z,66.13
2023-07-22T02:24:50.418Z,65.99
2023-07-22T02:25:50.555Z,65.89
2023-07-22T02:26:50.702Z,65.77
2023-07-22T02:27:50.912Z,65.59
2023-07-22T02:28:51.026Z,65.18
2023-07-22T02:29:51.184Z,65.12
2023-07-22T02:30:51.328Z,65.18
2023-07-22T02:31:51.488Z,65.22
2023-07-22T02:32:51.664Z,65.41
2023-07-22T02:33:51.739Z,65.46
2023-07-22T02:34:51.865Z,65.26
2023-07-22T02:35:52.020Z,65.06
2023-07-22T02:36:52.158Z,65.02
2023-07-22T02:37:52.276Z,65.54
2023-07-22T02:38:52.435Z,65.61
2023-07-22T02:39:52.566Z,65.71
2023-07-22T02:40:52.686Z,65.66
2023-07-22T02:41:52.873Z,65.77
2023-07-22T02:42:52.980Z,65.68
2023-07-22T02:43:53.123Z,65.71
2023-07-22T02:44:53.272Z,65.90
2023-07-22T02:45:53.464Z,66.20
2023-07-22T02:46:53.686Z,66.34
2023-07-22T02:47:53.761Z,66.26
2023-07-22T02:48:53.955Z,66.19
2023-07-22T02:49:54.110Z,66.33
2023-07-22T02:50:54.269Z,66.27
2023-07-22T02:51:54.374Z,66.17
2023-07-22T02:52:54.502Z,66.08
2023-07-22T02:53:54.581Z,66.15
2023-07-22T02:54:54.700Z,66.27
2023-07-22T02:55:54.807Z,66.28
2023-07-22T02:56:54.909Z,66.31
2023-07-22T02:57:55.001Z,66.82
2023-07-22T02:58:55.094Z,67.21
2023-07-22T02:59:55.230Z,67.21
2023-07-22T03:00:55.400Z,66.82
2023-07-22T03:01:55.545Z,66.58
2023-07-22T03:02:55.741Z,66.35
2023-07-22T03:03:55.903Z,66.48
2023-07-22T03:04:56.140Z,66.77
2023-07-22T03:05:56.225Z,66.96
2023-07-22T03:06:56.374Z,66.93
2023-07-22T03:07:56.513Z,66.81
2023-07-22T03:08:56.610Z,66.57
2023-07-22T03:09:56.815Z,66.54
2023-07-22T03:10:56.948Z,66.50
2023-07-22T03:11:57.481Z,66.52
2023-07-22T03:12:57.287Z,66.63
2023-07-22T03:13:57.395Z,66.58
2023-07-22T03:14:57.594Z,66.49
2023-07-22T03:15:57.783Z,66.61
2023-07-22T03:16:57.862Z,66.80
2023-07-22T03:17:58.054Z,66.77
2023-07-22T03:18:58.103Z,66.57
2023-07-22T03:19:58.287Z,66.86
2023-07-22T03:20:58.419Z,67.12
2023-07-22T03:21:58.646Z,67.01
2023-07-22T03:22:58.761Z,66.88
2023-07-22T03:23:59.476Z,66.65
2023-07-22T03:24:59.034Z,66.75
2023-07-22T03:25:59.203Z,66.77
2023-07-22T03:26:59.329Z,66.80
2023-07-22T03:27:59.500Z,66.69
2023-07-22T03:28:59.647Z,66.76
2023-07-22T03:29:59.793Z,66.79
2023-07-22T03:31:00.160Z,66.97
2023-07-22T03:32:00.064Z,67.03
2023-07-22T03:33:00.232Z,66.92
2023-07-22T03:34:00.379Z,66.81
2023-07-22T03:35:00.520Z,66.92
2023-07-22T03:36:00.621Z,67.06
2023-07-22T03:37:00.695Z,67.26
2023-07-22T03:38:00.812Z,67.16
2023-07-22T03:39:00.928Z,67.44
2023-07-22T03:40:01.012Z,67.81
2023-07-22T03:41:01.176Z,67.88
2023-07-22T03:42:01.249Z,67.91
2023-07-22T03:43:01.344Z,67.76
2023-07-22T03:44:01.516Z,67.70
2023-07-22T03:45:01.721Z,67.78
2023-07-22T03:46:01.903Z,68.03
2023-07-22T03:47:02.067Z,67.89
2023-07-22T03:48:02.246Z,67.93
2023-07-22T03:49:02.337Z,68.11
2023-07-22T03:50:02.534Z,68.22
2023-07-22T03:51:18.954Z,68.25
2023-07-22T03:52:03.780Z,68.43
2023-07-22T03:53:02.892Z,68.70
2023-07-22T03:54:02.999Z,68.71
2023-07-22T03:55:03.103Z,68.72
2023-07-22T03:56:03.255Z,68.85
2023-07-22T03:57:03.344Z,68.94
2023-07-22T03:58:03.443Z,68.80
2023-07-22T03:59:03.565Z,68.81
2023-07-22T04:00:03.660Z,68.55
2023-07-22T04:01:03.865Z,68.57
2023-07-22T04:02:03.974Z,68.70
2023-07-22T04:03:04.250Z,68.79
2023-07-22T04:04:04.343Z,68.98
2023-07-22T04:05:04.441Z,69.14
2023-07-22T04:06:04.552Z,69.39
2023-07-22T04:07:04.792Z,69.41
2023-07-22T04:08:04.866Z,69.37
2023-07-22T04:09:05.073Z,69.59
2023-07-22T04:10:05.178Z,69.66
2023-07-22T04:11:05.373Z,69.76
2023-07-22T04:12:05.556Z,69.58
2023-07-22T04:13:05.657Z,70.10
2023-07-22T04:14:05.850Z,70.42
2023-07-22T04:15:05.998Z,70.21
2023-07-22T04:16:06.142Z,70.08
2023-07-22T04:17:06.342Z,69.88
2023-07-22T04:18:06.487Z,69.75
2023-07-22T04:19:06.619Z,69.57
2023-07-22T04:20:06.804Z,69.56
2023-07-22T04:21:06.977Z,69.48
2023-07-22T04:22:07.168Z,69.52
2023-07-22T04:23:07.280Z,69.44
2023-07-22T04:24:07.497Z,69.55
2023-07-22T04:25:07.627Z,69.52
2023-07-22T04:26:07.725Z,69.39
2023-07-22T04:27:07.756Z,69.31
2023-07-22T04:28:08.002Z,69.44
2023-07-22T04:29:07.974Z,69.40
2023-07-22T04:30:08.053Z,69.14
2023-07-22T04:31:08.171Z,69.05
2023-07-22T04:32:08.287Z,68.82
2023-07-22T04:33:08.404Z,68.65
2023-07-22T04:34:08.462Z,68.54
2023-07-22T04:35:08.820Z,68.45
2023-07-22T04:36:08.783Z,68.27
2023-07-22T04:37:08.935Z,68.13
2023-07-22T04:38:09.043Z,68.02
2023-07-22T04:39:09.213Z,67.97
2023-07-22T04:40:09.362Z,67.89
2023-07-22T04:41:09.533Z,67.73
2023-07-22T04:42:09.669Z,67.58
2023-07-22T04:43:09.863Z,67.49
2023-07-22T04:44:10.003Z,67.29
2023-07-22T04:45:10.166Z,67.07
2023-07-22T04:46:10.357Z,67.00
2023-07-22T04:47:10.527Z,67.22
2023-07-22T04:48:10.559Z,67.29
2023-07-22T04:49:10.702Z,67.13
2023-07-22T04:50:10.802Z,67.15
2023-07-22T04:51:10.924Z,67.33
2023-07-22T04:52:11.016Z,67.35
2023-07-22T04:53:11.118Z,67.28
2023-07-22T04:54:11.242Z,67.11
2023-07-22T04:55:11.356Z,66.99
2023-07-22T04:56:11.496Z,66.80
2023-07-22T04:57:11.626Z,66.62
2023-07-22T04:58:11.789Z,66.59
2023-07-22T04:59:11.901Z,66.55
2023-07-22T05:00:11.976Z,66.29
2023-07-22T05:01:12.155Z,66.15
2023-07-22T05:02:12.215Z,65.83
2023-07-22T05:03:12.565Z,65.65
2023-07-22T05:04:12.564Z,65.44
2023-07-22T05:05:12.737Z,65.16
2023-07-22T05:06:12.890Z,64.87
2023-07-22T05:07:13.041Z,64.57
2023-07-22T05:08:13.197Z,64.53
2023-07-22T05:09:13.327Z,64.63
2023-07-22T05:10:13.695Z,64.88
2023-07-22T05:11:13.598Z,64.91
2023-07-22T05:12:13.736Z,64.33
2023-07-22T05:13:14.056Z,64.15
2023-07-22T05:14:14.003Z,64.29
2023-07-22T05:15:14.113Z,64.14
2023-07-22T05:16:14.311Z,63.97
2023-07-22T05:17:14.450Z,63.85
2023-07-22T05:18:14.532Z,64.16
2023-07-22T05:19:14.640Z,64.26
2023-07-22T05:20:14.749Z,64.30
2023-07-22T05:21:14.884Z,64.11
2023-07-22T05:22:15.016Z,64.41
2023-07-22T05:23:15.164Z,64.31
2023-07-22T05:24:15.322Z,64.04
2023-07-22T05:25:15.488Z,63.84
2023-07-22T05:26:15.600Z,63.69
2023-07-22T05:27:15.677Z,63.16
2023-07-22T05:28:15.811Z,62.76
2023-07-22T05:29:15.947Z,62.05
2023-07-22T05:30:32.659Z,61.55
2023-07-22T05:31:17.197Z,61.07
2023-07-22T05:32:32.464Z,60.60
2023-07-22T05:33:17.418Z,60.78
2023-07-22T05:34:16.468Z,60.60
2023-07-22T05:35:16.611Z,60.17
2023-07-22T05:36:16.650Z,59.92
2023-07-22T05:37:16.764Z,59.15
2023-07-22T05:38:16.882Z,58.24
2023-07-22T05:39:16.984Z,57.45
2023-07-22T05:40:17.025Z,57.01
2023-07-22T05:41:17.157Z,56.71
2023-07-22T05:42:17.198Z,56.80
2023-07-22T05:43:17.298Z,56.16
2023-07-22T05:44:17.344Z,56.01
2023-07-22T05:45:17.605Z,56.26
2023-07-22T05:46:17.596Z,56.33
2023-07-22T05:47:19.286Z,55.84
2023-07-22T05:48:17.632Z,55.61
2023-07-22T05:49:17.688Z,55.44
2023-07-22T05:50:17.734Z,55.31
2023-07-22T05:51:17.799Z,55.31
2023-07-22T05:52:17.884Z,55.28
2023-07-22T05:53:17.953Z,55.20
2023-07-22T05:54:18.041Z,55.14
2023-07-22T05:55:18.091Z,55.09
2023-07-22T05:56:18.167Z,55.08
2023-07-22T05:57:18.247Z,55.80
2023-07-22T05:58:18.356Z,55.66
2023-07-22T05:59:22.156Z,55.57
2023-07-22T06:00:18.480Z,55.13
2023-07-22T06:01:18.661Z,54.61
2023-07-22T06:02:18.593Z,55.58
2023-07-22T06:03:18.693Z,55.63
2023-07-22T06:04:18.789Z,55.59
2023-07-22T06:05:18.809Z,55.67
2023-07-22T06:06:19.487Z,55.81
2023-07-22T06:07:18.928Z,56.01
2023-07-22T06:08:18.986Z,56.12
2023-07-22T06:09:19.153Z,56.16
2023-07-22T06:10:19.137Z,56.42
2023-07-22T06:11:19.196Z,56.09
2023-07-22T06:12:19.230Z,55.86
2023-07-22T06:13:19.335Z,55.84
2023-07-22T06:14:19.387Z,55.68
2023-07-22T06:15:19.480Z,55.79
2023-07-22T06:16:19.540Z,55.97
2023-07-22T06:17:19.589Z,56.12
2023-07-22T06:18:19.641Z,56.05
2023-07-22T06:19:19.728Z,56.41
2023-07-22T06:20:19.844Z,56.71
2023-07-22T06:21:19.848Z,56.73
2023-07-22T06:22:19.920Z,56.82
2023-07-22T06:23:19.994Z,56.68
2023-07-22T06:24:20.083Z,56.53
2023-07-22T06:25:20.139Z,56.41
2023-07-22T06:26:22.520Z,56.37
2023-07-22T06:27:20.255Z,56.46
2023-07-22T06:28:20.340Z,56.64
2023-07-22T06:29:20.378Z,56.59
2023-07-22T06:30:20.442Z,56.74
2023-07-22T06:31:20.622Z,56.73
2023-07-22T06:32:20.590Z,56.60
2023-07-22T06:33:20.640Z,56.61
2023-07-22T06:34:20.697Z,56.76
2023-07-22T06:35:20.760Z,56.97
2023-07-22T06:36:20.939Z,57.09
2023-07-22T06:37:20.909Z,57.25
2023-07-22T06:38:20.971Z,57.23
2023-07-22T06:39:21.059Z,57.16
2023-07-22T06:40:21.086Z,57.64
2023-07-22T06:41:21.139Z,56.81
2023-07-22T06:42:21.247Z,57.17
2023-07-22T06:43:21.274Z,56.88
2023-07-22T06:44:21.328Z,57.28
2023-07-22T06:45:21.397Z,57.89
2023-07-22T06:46:21.467Z,58.07
2023-07-22T06:47:21.551Z,57.98
2023-07-22T06:48:21.601Z,57.83
2023-07-22T06:49:21.675Z,58.07
2023-07-22T06:50:21.728Z,57.73
2023-07-22T06:51:21.806Z,57.67
2023-07-22T06:52:21.876Z,57.39
2023-07-22T06:53:21.953Z,57.24
2023-07-22T06:54:21.991Z,57.26
2023-07-22T06:55:22.067Z,57.11
2023-07-22T06:56:22.126Z,57.02
2023-07-22T06:57:22.214Z,56.79
2023-07-22T06:58:22.265Z,56.67
2023-07-22T06:59:22.354Z,56.17
2023-07-22T07:00:22.380Z,55.76
2023-07-22T07:01:22.455Z,55.41
2023-07-22T07:02:22.502Z,55.01
2023-07-22T07:03:22.551Z,54.75
2023-07-22T07:04:22.616Z,54.39
2023-07-22T07:05:22.654Z,54.06
2023-07-22T07:06:22.752Z,53.49
2023-07-22T07:07:22.758Z,53.14
2023-07-22T07:08:22.820Z,52.90
2023-07-22T07:09:22.866Z,52.86
2023-07-22T07:10:22.899Z,52.29
2023-07-22T07:11:22.976Z,51.92
2023-07-22T07:12:23.013Z,51.78
2023-07-22T07:13:23.068Z,51.95
2023-07-22T07:14:23.122Z,52.37
2023-07-22T07:15:23.185Z,52.64
2023-07-22T07:16:23.314Z,52.79
2023-07-22T07:17:23.338Z,52.92
2023-07-22T07:18:23.359Z,52.54
2023-07-22T07:19:23.421Z,51.95
2023-07-22T07:20:23.457Z,50.77
2023-07-22T07:21:23.532Z,50.22
2023-07-22T07:22:23.570Z,49.70
2023-07-22T07:23:23.626Z,49.25
2023-07-22T07:24:23.694Z,48.50
2023-07-22T07:25:23.714Z,48.67
2023-07-22T07:26:23.758Z,48.94
2023-07-22T07:27:23.812Z,50.09
2023-07-22T07:28:23.881Z,51.16
2023-07-22T07:29:44.831Z,50.60
2023-07-22T07:30:24.979Z,50.52
2023-07-22T07:31:24.140Z,50.86
2023-07-22T07:32:24.177Z,51.28
2023-07-22T07:33:24.169Z,51.88
2023-07-22T07:34:24.307Z,52.48
2023-07-22T07:35:24.299Z,52.26
2023-07-22T07:36:24.495Z,52.16
2023-07-22T07:37:24.437Z,52.13
2023-07-22T07:38:24.480Z,50.70
2023-07-22T07:39:24.571Z,50.34
2023-07-22T07:40:24.592Z,51.05
2023-07-22T07:41:24.656Z,51.76
2023-07-22T07:42:24.701Z,51.29
2023-07-22T07:43:24.788Z,52.34
2023-07-22T07:44:24.872Z,52.63
2023-07-22T07:45:24.968Z,52.44
2023-07-22T07:46:25.250Z,52.86
2023-07-22T07:47:25.246Z,52.57
2023-07-22T07:48:25.332Z,52.35
2023-07-22T07:49:25.485Z,52.63
2023-07-22T07:50:25.582Z,51.79
2023-07-22T07:51:25.652Z,52.02
2023-07-22T07:52:25.754Z,51.46
2023-07-22T07:53:25.917Z,50.05
2023-07-22T07:54:25.934Z,49.11
2023-07-22T07:55:26.022Z,48.98
2023-07-22T07:56:26.442Z,48.41
2023-07-22T07:57:26.252Z,47.84
2023-07-22T07:58:26.276Z,47.60
2023-07-22T07:59:26.399Z,47.57
2023-07-22T08:00:26.447Z,47.30
2023-07-22T08:01:26.547Z,47.41
2023-07-22T08:02:26.675Z,47.76
2023-07-22T08:03:26.852Z,47.85
2023-07-22T08:04:26.909Z,48.44
2023-07-22T08:05:27.076Z,49.57
2023-07-22T08:06:27.342Z,49.34
2023-07-22T08:07:27.339Z,49.53
2023-07-22T08:08:27.351Z,49.73
2023-07-22T08:09:27.484Z,49.56
2023-07-22T08:10:27.559Z,50.70
2023-07-22T08:11:27.661Z,50.66
2023-07-22T08:12:27.795Z,50.99
2023-07-22T08:13:27.946Z,50.69
2023-07-22T08:14:27.998Z,50.60
2023-07-22T08:15:28.128Z,50.12
2023-07-22T08:16:28.453Z,50.45
2023-07-22T08:17:28.374Z,50.09
2023-07-22T08:18:31.174Z,49.72
2023-07-22T08:19:28.524Z,49.46
2023-07-22T08:20:28.632Z,49.38
2023-07-22T08:21:28.664Z,48.35
2023-07-22T08:22:28.717Z,48.24
2023-07-22T08:23:28.768Z,47.92
2023-07-22T08:24:28.846Z,46.58
2023-07-22T08:25:28.935Z,46.78
2023-07-22T08:26:29.131Z,48.96
2023-07-22T08:27:29.008Z,47.91
2023-07-22T08:28:29.121Z,46.69
2023-07-22T08:29:29.141Z,46.77
2023-07-22T08:30:29.219Z,47.79
2023-07-22T08:31:29.330Z,47.37
2023-07-22T08:32:29.351Z,46.51
2023-07-22T08:33:39.716Z,46.98
2023-07-22T08:34:30.422Z,46.40
2023-07-22T08:35:29.469Z,46.53
2023-07-22T08:36:29.748Z,47.66
2023-07-22T08:37:29.556Z,47.67
2023-07-22T08:38:29.624Z,46.61
2023-07-22T08:39:29.652Z,46.76
2023-07-22T08:40:29.730Z,45.74
2023-07-22T08:41:29.789Z,46.77
2023-07-22T08:42:29.858Z,46.70
2023-07-22T08:43:30.019Z,46.35
2023-07-22T08:44:29.983Z,45.00
2023-07-22T08:45:30.092Z,45.00
2023-07-22T08:46:30.230Z,45.38
2023-07-22T08:47:30.168Z,45.24
2023-07-22T08:48:30.242Z,44.39
2023-07-22T08:49:30.244Z,43.69
2023-07-22T08:50:30.353Z,43.56
2023-07-22T08:51:30.439Z,42.63
2023-07-22T08:52:30.497Z,42.70
2023-07-22T08:53:30.600Z,42.33
2023-07-22T08:54:30.732Z,41.90
2023-07-22T08:55:30.740Z,41.85
2023-07-22T08:56:30.844Z,42.77
2023-07-22T08:57:31.363Z,42.03
2023-07-22T08:58:31.022Z,42.71
2023-07-22T08:59:31.035Z,44.24
2023-07-22T09:00:31.152Z,43.58
2023-07-22T09:01:31.366Z,43.88
2023-07-22T09:02:31.340Z,44.13
2023-07-22T09:03:31.397Z,43.61
2023-07-22T09:04:31.486Z,43.95
2023-07-22T09:05:31.558Z,44.50
2023-07-22T09:06:31.595Z,45.29
2023-07-22T09:07:31.637Z,46.04
2023-07-22T09:08:31.694Z,47.78
2023-07-22T09:09:31.729Z,48.84
2023-07-22T09:10:31.835Z,48.47
2023-07-22T09:11:31.872Z,47.96
2023-07-22T09:12:31.908Z,47.98
2023-07-22T09:13:31.961Z,47.61
2023-07-22T09:14:36.761Z,47.26
2023-07-22T09:15:33.154Z,46.43
2023-07-22T09:16:32.957Z,45.66
2023-07-22T09:17:32.229Z,44.47
2023-07-22T09:18:33.082Z,44.80
2023-07-22T09:19:32.312Z,46.10
2023-07-22T09:20:32.343Z,45.18
2023-07-22T09:21:32.365Z,46.17
2023-07-22T09:22:32.457Z,43.83
2023-07-22T09:23:32.443Z,43.41
2023-07-22T09:24:32.540Z,42.40
2023-07-22T09:25:32.570Z,42.31
2023-07-22T09:26:32.586Z,42.92
2023-07-22T09:27:32.929Z,41.61
2023-07-22T09:28:32.692Z,41.29
2023-07-22T09:29:32.723Z,40.81
2023-07-22T09:30:32.815Z,40.51
2023-07-22T09:31:32.951Z,41.21
2023-07-22T09:32:32.994Z,41.52
2023-07-22T09:33:33.009Z,40.90
2023-07-22T09:34:33.148Z,41.15
2023-07-22T09:35:33.179Z,42.67
2023-07-22T09:36:33.268Z,42.28
2023-07-22T09:37:33.339Z,42.35
2023-07-22T09:38:33.427Z,42.13
2023-07-22T09:39:33.495Z,41.84
2023-07-22T09:40:33.563Z,42.59
2023-07-22T09:41:33.667Z,42.32
2023-07-22T09:42:33.702Z,42.30
2023-07-22T09:43:33.784Z,42.33
2023-07-22T09:44:34.106Z,41.67
2023-07-22T09:45:33.949Z,41.03
2023-07-22T09:46:34.275Z,40.24
2023-07-22T09:47:34.358Z,40.52
2023-07-22T09:48:34.395Z,43.35
2023-07-22T09:49:34.336Z,43.81
2023-07-22T09:50:34.433Z,43.50
2023-07-22T09:51:35.219Z,42.39
2023-07-22T09:52:34.577Z,43.42
2023-07-22T09:53:34.751Z,43.37
2023-07-22T09:54:34.794Z,42.91
2023-07-22T09:55:34.899Z,43.12
2023-07-22T09:56:34.956Z,42.51
2023-07-22T09:57:35.032Z,42.16
2023-07-22T09:58:35.111Z,43.37
2023-07-22T09:59:35.177Z,44.57
2023-07-22T10:00:35.238Z,44.90
2023-07-22T10:01:35.308Z,45.39
2023-07-22T10:02:35.434Z,45.94
2023-07-22T10:03:35.478Z,47.79
2023-07-22T10:04:35.611Z,46.76
2023-07-22T10:05:35.715Z,47.00
2023-07-22T10:06:35.764Z,47.35
2023-07-22T10:07:35.853Z,47.79
2023-07-22T10:08:37.076Z,48.68
2023-07-22T10:09:36.035Z,48.69
2023-07-22T10:10:36.164Z,47.93
2023-07-22T10:11:36.156Z,47.74
2023-07-22T10:12:36.224Z,48.27
2023-07-22T10:13:36.294Z,47.81
2023-07-22T10:14:38.180Z,49.22
2023-07-22T10:15:36.454Z,50.18
2023-07-22T10:16:36.601Z,49.87
2023-07-22T10:17:36.604Z,50.02
2023-07-22T10:18:36.694Z,50.36
2023-07-22T10:19:36.782Z,51.28
2023-07-22T10:20:36.908Z,51.80
2023-07-22T10:21:37.029Z,51.73
2023-07-22T10:22:37.197Z,52.30
2023-07-22T10:23:37.316Z,52.97
2023-07-22T10:24:37.508Z,54.07
2023-07-22T10:25:37.614Z,54.20
2023-07-22T10:27:37.846Z,55.93
2023-07-22T10:28:37.918Z,57.03
2023-07-22T10:29:38.051Z,57.53
2023-07-22T10:30:38.182Z,57.77
2023-07-22T10:31:38.271Z,57.90
2023-07-22T10:32:39.490Z,58.26
2023-07-22T10:33:38.428Z,58.16
2023-07-22T10:34:38.536Z,58.72
2023-07-22T10:35:38.607Z,59.09
2023-07-22T10:36:38.725Z,59.76
2023-07-22T10:37:38.876Z,60.94
2023-07-22T10:38:38.925Z,60.35
2023-07-22T10:39:39.092Z,60.97
2023-07-22T10:40:39.361Z,62.03
2023-07-22T10:41:39.454Z,62.75
2023-07-22T10:42:39.550Z,62.16
2023-07-22T10:43:39.689Z,61.61
2023-07-22T10:44:39.883Z,62.04
2023-07-22T10:45:39.983Z,61.01
2023-07-22T10:46:40.229Z,61.97
2023-07-22T10:47:40.301Z,61.40
2023-07-22T10:48:40.445Z,60.83
2023-07-22T10:49:40.568Z,60.97
2023-07-22T10:50:43.568Z,61.43
2023-07-22T10:51:40.857Z,59.59
2023-07-22T10:52:40.923Z,59.67
2023-07-22T10:53:41.048Z,58.41
2023-07-22T10:54:41.166Z,58.99
2023-07-22T10:55:41.245Z,58.86
2023-07-22T10:56:41.390Z,58.11
2023-07-22T10:57:41.472Z,57.14
2023-07-22T10:58:41.612Z,56.84
2023-07-22T10:59:41.661Z,57.21
2023-07-22T11:00:41.750Z,56.81
2023-07-22T11:01:41.864Z,55.45
2023-07-22T11:02:41.889Z,54.77
2023-07-22T11:03:41.897Z,53.84
2023-07-22T11:04:55.715Z,53.56
2023-07-22T11:05:42.014Z,52.37
2023-07-22T11:06:42.058Z,52.09
2023-07-22T11:07:42.095Z,51.75
2023-07-22T11:08:42.158Z,51.45
2023-07-22T11:09:42.213Z,51.84
2023-07-22T11:10:42.333Z,52.23
2023-07-22T11:11:42.311Z,51.82
2023-07-22T11:12:42.362Z,51.82
2023-07-22T11:13:42.669Z,51.47
2023-07-22T11:14:42.505Z,51.95
2023-07-22T11:15:42.494Z,52.62
2023-07-22T11:16:42.569Z,52.99
2023-07-22T11:17:42.573Z,52.64
2023-07-22T11:18:42.672Z,51.04
2023-07-22T11:19:42.622Z,50.97
2023-07-22T11:20:42.729Z,50.38
2023-07-22T11:21:42.791Z,50.08
2023-07-22T11:22:42.950Z,49.96
2023-07-22T11:23:42.992Z,49.05
2023-07-22T11:24:43.136Z,49.71
2023-07-22T11:25:43.124Z,48.71
2023-07-22T11:26:46.358Z,49.08
2023-07-22T11:27:43.178Z,49.85
2023-07-22T11:28:43.231Z,46.33
2023-07-22T11:29:43.242Z,47.77
2023-07-22T11:30:43.287Z,48.36
2023-07-22T11:31:43.309Z,47.89
2023-07-22T11:32:43.314Z,47.75
2023-07-22T11:33:43.295Z,48.05
2023-07-22T11:34:43.339Z,46.91
2023-07-22T11:35:43.353Z,46.51
2023-07-22T11:36:43.369Z,46.97
2023-07-22T11:37:43.413Z,47.32
2023-07-22T11:38:43.443Z,47.93
2023-07-22T11:39:43.440Z,46.12
2023-07-22T11:40:43.519Z,46.86
2023-07-22T11:41:43.535Z,45.90
2023-07-22T11:42:43.538Z,46.70
2023-07-22T11:43:43.563Z,46.32
2023-07-22T11:44:43.609Z,46.58
2023-07-22T11:45:43.684Z,47.17
2023-07-22T11:46:43.656Z,47.24
2023-07-22T11:47:43.733Z,46.04
2023-07-22T11:48:43.712Z,46.86
2023-07-22T11:49:43.725Z,47.19
2023-07-22T11:50:43.814Z,45.43
2023-07-22T11:51:43.828Z,45.08
2023-07-22T11:52:43.839Z,45.99
2023-07-22T11:53:43.877Z,45.92
2023-07-22T11:54:43.911Z,45.11
2023-07-22T11:55:43.928Z,43.39
2023-07-22T11:56:44.007Z,43.28
2023-07-22T11:57:44.014Z,43.77
2023-07-22T11:58:44.104Z,41.02
2023-07-22T11:59:44.197Z,41.29
2023-07-22T12:00:52.925Z,41.28
2023-07-22T12:01:45.244Z,41.20
2023-07-22T12:02:44.319Z,40.29
2023-07-22T12:03:44.303Z,40.65
2023-07-22T12:04:44.241Z,38.62
2023-07-22T12:05:44.241Z,37.72
2023-07-22T12:06:44.255Z,37.27
2023-07-22T12:07:44.235Z,36.74
2023-07-22T12:08:44.331Z,36.63
2023-07-22T12:09:44.237Z,36.52
2023-07-22T12:10:44.223Z,36.70
2023-07-22T12:11:44.224Z,37.34
2023-07-22T12:12:44.268Z,37.64
2023-07-22T12:13:44.239Z,41.00
2023-07-22T12:14:44.248Z,40.76
2023-07-22T12:15:44.239Z,40.38
2023-07-22T12:16:44.314Z,38.37
2023-07-22T12:17:44.264Z,39.09
2023-07-22T12:18:44.282Z,38.63
2023-07-22T12:19:44.238Z,38.55
2023-07-22T12:20:44.220Z,38.64
2023-07-22T12:21:44.260Z,37.63
2023-07-22T12:22:44.299Z,36.71
2023-07-22T12:23:44.289Z,36.15
2023-07-22T12:24:44.363Z,35.88
2023-07-22T12:25:44.334Z,36.29
2023-07-22T12:26:44.433Z,36.35
2023-07-22T12:27:44.453Z,37.47
2023-07-22T12:28:44.499Z,37.67
2023-07-22T12:29:44.534Z,38.17
2023-07-22T12:30:44.534Z,37.49
2023-07-22T12:31:44.618Z,37.55
2023-07-22T12:32:44.646Z,38.06
2023-07-22T12:33:44.689Z,38.37
2023-07-22T12:34:44.715Z,39.51
2023-07-22T12:35:44.747Z,39.12
2023-07-22T12:36:44.789Z,39.81
2023-07-22T12:37:44.817Z,36.93
2023-07-22T12:38:44.869Z,35.93
2023-07-22T12:39:44.915Z,36.23
2023-07-22T12:40:44.944Z,36.79
2023-07-22T12:41:44.950Z,36.80
2023-07-22T12:42:44.975Z,36.52
2023-07-22T12:43:44.972Z,35.99
2023-07-22T12:44:44.927Z,35.82
2023-07-22T12:45:44.903Z,35.04
2023-07-22T12:46:44.843Z,34.34
2023-07-22T12:47:44.878Z,35.23
2023-07-22T12:48:44.811Z,35.08
2023-07-22T12:49:44.791Z,34.65
2023-07-22T12:50:44.755Z,34.01
2023-07-22T12:51:45.669Z,33.61
2023-07-22T12:52:44.713Z,33.66
2023-07-22T12:53:44.745Z,32.78
2023-07-22T12:54:44.805Z,33.09